AirNav   ProFlight Series 2 Aviation Headset
 
 1091 users online  

MA87 Cape Air Seaplanes on Boston Harbor Seaplane Base
Boston, Massachusetts, USA

GOING TO BOSTON?


FAA INFORMATION EFFECTIVE 08 OCTOBER 2020

Location

FAA Identifier: MA87
Lat/Long: 42-21-09.0000N 071-01-33.0000W
42-21.150000N 071-01.550000W
42.3525000,-71.0258333
(estimated)
Elevation: 0 ft. / 0 m
From city: 1 mile SE of BOSTON, MA
Time zone: UTC -4 (UTC -5 during Standard Time)
Zip code: 02127

Seaplane Base Operations

Seaplane Base use: Private use. Permission required prior to landing
Activation date: 09/2016
Control tower: no
ARTCC: BOSTON CENTER
FSS: BRIDGEPORT FLIGHT SERVICE STATION
Attendance: 
Segmented circle: no

Seaplane Base Communications

WX ASOS at BOS (1.1 nm NE): 135.0 (617-567-5762)
WX ASOS at OWD (12 nm SW): 119.95 (781-762-4314)
WX ASOS at BED (14 nm NW): 124.6 (781-274-9733)
WX ASOS at BVY (15 nm N): PHONE 978-921-5042

Nearby radio navigation aids

VOR radial/distance  VOR name  Freq  Var
BOSr276/1.6BOSTON VOR/DME112.7016W
LWMr188/23.5LAWRENCE VOR/DME112.5015W
MHTr169/34.5MANCHESTER VOR/DME114.4015W

 
NDB name  Hdg/Dist  Freq  Var  ID
STOGE033/14.739715WOW --- .--
PROVINCETOWN312/39.538916WPVC .--. ...- -.-.

Seaplane Base Services

Runway Information

Runway 14W/32W

Dimensions: 2500 x 60 ft. / 762 x 18 m
Surface: water
RUNWAY 14W  RUNWAY 32W
Latitude: 42-21.150000N
Longitude: 071-01.550000W
Elevation: 0.0 ft.
Traffic pattern: leftleft

Seaplane Base Ownership and Management from official FAA records

Ownership: Privately-owned
Owner: HYANNIS AIR SERVICE, INC
660 BARNSTABLE RD
HYANNIS, MA 02601
Phone 508-862-9719
Manager: ANDREW BONNEY
660 BARNSTABLE RD
HYANNIS, MA 02601
Phone 508-862-9719

Additional Remarks

FOR CD CTC BOSTON ARTCC AT 603-879-6859.
IATA ID: BNH.

Instrument Procedures

There are no published instrument procedures at MA87.

Some nearby airports with instrument procedures:

KBOS - General Edward Lawrence Logan International Airport (1 nm NE)
KOWD - Norwood Memorial Airport (12 nm SW)
KBED - Laurence G Hanscom Field Airport (14 nm NW)
KBVY - Beverly Regional Airport (15 nm N)
KGHG - Marshfield Municipal Airport - George Harlow Field (22 nm SE)
 
Loc | Ops | Rwys | IFR | FBO | Links
Com | Nav | Svcs | Stats | Notes
Aerial photo
No photo
 
Airport distance calculator
Flying to Cape Air Seaplanes on Boston Harbor Seaplane Base? Find the distance to fly.

From to MA87

Sunrise and sunset
Times for 29-Oct-2020
 Local
(UTC-4)
 Zulu
(UTC)
Morning civil twilight06:4710:47
Sunrise07:1611:16
Sunset17:4021:40
Evening civil twilight18:0922:09

Current date and time
Zulu (UTC)  29-Oct-2020 22:28:49
Local (UTC-4)  29-Oct-2020 18:28:49
 
METAR
KBOS 292154Z 01010KT 2 1/2SM RA BR FEW004 BKN009 OVC033 07/06 A2976 RMK AO2 RAEMMB10 SLP077 VIS NE-SE 1 P0013 T00670056 $
KMQE 
9nm SW 
292151Z AUTO 03008G16KT 06/06 A2972 RMK AO1 SLP079 P0013 T00560056
KOWD 
12nm SW 
292221Z 02009KT 3SM -RA BR BKN006 OVC025 08/06 A2973 RMK AO2 P0008 T00780056
KBED 
14nm NW 
292151Z 02007KT 5SM -RA BR BKN008 BKN050 OVC070 06/06 A2976 RMK AO2 SLP092 P0011 T00610056
KBVY 
15nm N 
292153Z 01006KT 5SM -RA BR BKN008 OVC070 07/06 A2976 RMK AO2 SLP075 T00670056 PNO $
TAF
KBOS 291731Z 2918/3024 17004KT P6SM -RA OVC050 FM292000 04010KT 3SM -RA BR OVC008 FM300400 03020G30KT 3SM -RA BR OVC010 FM301200 01018G27KT 1SM -RASN BR OVC008 FM301400 01018G27KT 1/4SM -SN FG OVC010 FM301600 01014G21KT 6SM BR VCSH OVC020 FM301900 01013G20KT P6SM BKN030 FM302200 36010KT P6SM SCT100
KBED 
14nm NW 
291731Z 2918/3018 00000KT 4SM -RA BR OVC008 FM291900 06003KT 3SM -RA BR OVC008 FM300600 02013G21KT 3SM -RA BR OVC008 FM300800 02013G20KT 4SM -SN BR OVC008 FM301200 01013G20KT 1 1/2SM -SN BR OVC008 FM301500 01013G22KT 1/4SM -SN FG OVC010 FM301700 36012G19KT 3SM BR VCSH OVC025
NOTAMs
Click for the latest NOTAMs
NOTAMs are issued by the DoD/FAA and will open in a separate window not controlled by AirNav.

 

 
 

Would you like to see your business listed on this page?

 If your business provides an interesting product or service to pilots, flight crews, aircraft, or users of the Cape Air Seaplanes on Boston Harbor Seaplane Base, you should consider listing it here.  To start the listing process, click on the button below
 
Add a business
 

Other Pages about Cape Air Seaplanes on Boston Harbor Seaplane Base

Update a link
 
Copyright © AirNav, LLC. All rights reserved. Privacy Policy  Contact